sensor_id;sensor_type;location;lat;lon;timestamp;pressure;altitude;pressure_sealevel;temperature;humidity
55311;BME280;41173;52.634;-8.666;2022-07-09T00:00:19;103161.56;;;14.43;100.00
55311;BME280;41173;52.634;-8.666;2022-07-09T00:02:44;103149.47;;;14.24;100.00
55311;BME280;41173;52.634;-8.666;2022-07-09T00:05:09;103156.75;;;14.32;100.00
55311;BME280;41173;52.634;-8.666;2022-07-09T00:07:37;103155.41;;;14.19;100.00
55311;BME280;41173;52.634;-8.666;2022-07-09T00:10:03;103147.13;;;14.59;100.00
55311;BME280;41173;52.634;-8.666;2022-07-09T00:12:28;103159.00;;;14.72;100.00
55311;BME280;41173;52.634;-8.666;2022-07-09T00:14:54;103157.41;;;14.52;100.00
55311;BME280;41173;52.634;-8.666;2022-07-09T00:17:19;103146.50;;;14.68;100.00
55311;BME280;41173;52.634;-8.666;2022-07-09T00:19:44;103157.91;;;14.65;100.00
55311;BME280;41173;52.634;-8.666;2022-07-09T00:22:10;103156.34;;;14.72;100.00
55311;BME280;41173;52.634;-8.666;2022-07-09T00:24:35;103148.50;;;15.02;100.00
55311;BME280;41173;52.634;-8.666;2022-07-09T00:27:00;103150.81;;;14.39;100.00
55311;BME280;41173;52.634;-8.666;2022-07-09T00:29:26;103148.72;;;14.56;100.00
55311;BME280;41173;52.634;-8.666;2022-07-09T00:31:51;103158.66;;;14.89;100.00
55311;BME280;41173;52.634;-8.666;2022-07-09T00:34:17;103153.31;;;14.87;100.00
55311;BME280;41173;52.634;-8.666;2022-07-09T00:36:42;103154.09;;;14.57;100.00
55311;BME280;41173;52.634;-8.666;2022-07-09T00:39:07;103155.41;;;14.70;100.00
55311;BME280;41173;52.634;-8.666;2022-07-09T00:41:33;103146.03;;;14.54;100.00
55311;BME280;41173;52.634;-8.666;2022-07-09T00:43:58;103156.56;;;14.78;100.00
55311;BME280;41173;52.634;-8.666;2022-07-09T00:46:23;103147.19;;;14.90;100.00
55311;BME280;41173;52.634;-8.666;2022-07-09T00:48:49;103143.09;;;14.99;100.00
55311;BME280;41173;52.634;-8.666;2022-07-09T00:51:17;103141.75;;;14.85;100.00
55311;BME280;41173;52.634;-8.666;2022-07-09T00:53:44;103129.63;;;15.22;100.00
55311;BME280;41173;52.634;-8.666;2022-07-09T00:56:11;103127.78;;;14.91;100.00
55311;BME280;41173;52.634;-8.666;2022-07-09T00:58:37;103132.91;;;14.57;100.00
55311;BME280;41173;52.634;-8.666;2022-07-09T01:01:03;103126.03;;;14.62;100.00
55311;BME280;41173;52.634;-8.666;2022-07-09T01:03:29;103125.84;;;14.58;100.00
55311;BME280;41173;52.634;-8.666;2022-07-09T01:05:54;103118.84;;;14.60;100.00
55311;BME280;41173;52.634;-8.666;2022-07-09T01:08:21;103126.06;;;14.64;100.00
55311;BME280;41173;52.634;-8.666;2022-07-09T01:10:48;103097.31;;;14.76;100.00
55311;BME280;41173;52.634;-8.666;2022-07-09T01:13:16;103112.97;;;14.97;100.00
55311;BME280;41173;52.634;-8.666;2022-07-09T01:15:41;103107.59;;;14.67;100.00
55311;BME280;41173;52.634;-8.666;2022-07-09T01:18:10;103112.28;;;14.76;100.00
55311;BME280;41173;52.634;-8.666;2022-07-09T01:20:36;103097.00;;;14.67;100.00
55311;BME280;41173;52.634;-8.666;2022-07-09T01:23:01;103104.22;;;14.71;100.00
55311;BME280;41173;52.634;-8.666;2022-07-09T01:25:38;103101.03;;;14.56;100.00
55311;BME280;41173;52.634;-8.666;2022-07-09T01:28:05;103095.25;;;14.40;100.00
55311;BME280;41173;52.634;-8.666;2022-07-09T01:30:32;103093.81;;;14.52;100.00
55311;BME280;41173;52.634;-8.666;2022-07-09T01:32:58;103083.91;;;14.72;100.00
55311;BME280;41173;52.634;-8.666;2022-07-09T01:35:24;103097.22;;;14.73;100.00
55311;BME280;41173;52.634;-8.666;2022-07-09T01:37:50;103090.41;;;14.81;100.00
55311;BME280;41173;52.634;-8.666;2022-07-09T01:40:16;103083.00;;;14.44;100.00
55311;BME280;41173;52.634;-8.666;2022-07-09T01:42:41;103088.31;;;14.71;100.00
55311;BME280;41173;52.634;-8.666;2022-07-09T01:45:07;103081.53;;;14.81;100.00
55311;BME280;41173;52.634;-8.666;2022-07-09T01:47:33;103086.22;;;14.90;100.00
55311;BME280;41173;52.634;-8.666;2022-07-09T01:49:58;103088.63;;;15.11;100.00
55311;BME280;41173;52.634;-8.666;2022-07-09T01:52:24;103087.03;;;15.17;100.00
55311;BME280;41173;52.634;-8.666;2022-07-09T01:54:50;103072.16;;;15.21;100.00
55311;BME280;41173;52.634;-8.666;2022-07-09T01:57:15;103068.97;;;14.46;100.00
55311;BME280;41173;52.634;-8.666;2022-07-09T01:59:40;103069.16;;;14.80;100.00
55311;BME280;41173;52.634;-8.666;2022-07-09T02:02:06;103065.66;;;15.11;100.00
55311;BME280;41173;52.634;-8.666;2022-07-09T02:04:31;103071.56;;;14.45;100.00
55311;BME280;41173;52.634;-8.666;2022-07-09T02:06:57;103068.50;;;14.60;100.00
55311;BME280;41173;52.634;-8.666;2022-07-09T02:09:22;103076.47;;;14.89;100.00
55311;BME280;41173;52.634;-8.666;2022-07-09T02:11:48;103076.78;;;14.99;100.00
55311;BME280;41173;52.634;-8.666;2022-07-09T02:14:14;103074.38;;;14.51;100.00
55311;BME280;41173;52.634;-8.666;2022-07-09T02:16:40;103075.09;;;14.45;100.00
55311;BME280;41173;52.634;-8.666;2022-07-09T02:19:05;103070.59;;;14.70;100.00
55311;BME280;41173;52.634;-8.666;2022-07-09T02:21:32;103070.56;;;14.97;100.00
55311;BME280;41173;52.634;-8.666;2022-07-09T02:23:57;103076.78;;;14.99;100.00
55311;BME280;41173;52.634;-8.666;2022-07-09T02:26:25;103069.41;;;14.89;100.00
55311;BME280;41173;52.634;-8.666;2022-07-09T02:28:50;103061.94;;;14.76;100.00
55311;BME280;41173;52.634;-8.666;2022-07-09T02:31:17;103065.97;;;14.63;100.00
55311;BME280;41173;52.634;-8.666;2022-07-09T02:33:42;103061.56;;;14.63;100.00
55311;BME280;41173;52.634;-8.666;2022-07-09T02:36:07;103045.25;;;14.51;100.00
55311;BME280;41173;52.634;-8.666;2022-07-09T02:38:33;103054.00;;;14.48;100.00
55311;BME280;41173;52.634;-8.666;2022-07-09T02:40:58;103060.22;;;14.76;100.00
55311;BME280;41173;52.634;-8.666;2022-07-09T02:43:26;103048.03;;;14.56;100.00
55311;BME280;41173;52.634;-8.666;2022-07-09T02:45:51;103042.13;;;14.63;100.00
55311;BME280;41173;52.634;-8.666;2022-07-09T02:48:20;103043.31;;;14.45;100.00
55311;BME280;41173;52.634;-8.666;2022-07-09T02:50:46;103043.16;;;14.68;100.00
55311;BME280;41173;52.634;-8.666;2022-07-09T02:53:11;103047.06;;;14.81;100.00
55311;BME280;41173;52.634;-8.666;2022-07-09T02:55:37;103048.81;;;14.80;100.00
55311;BME280;41173;52.634;-8.666;2022-07-09T02:58:02;103042.44;;;14.74;100.00
55311;BME280;41173;52.634;-8.666;2022-07-09T03:00:27;103045.75;;;14.95;100.00
55311;BME280;41173;52.634;-8.666;2022-07-09T03:02:53;103039.78;;;14.74;100.00
55311;BME280;41173;52.634;-8.666;2022-07-09T03:05:18;103039.06;;;14.51;100.00
55311;BME280;41173;52.634;-8.666;2022-07-09T03:07:44;103039.88;;;14.77;100.00
55311;BME280;41173;52.634;-8.666;2022-07-09T03:10:09;103049.22;;;14.64;100.00
55311;BME280;41173;52.634;-8.666;2022-07-09T03:12:34;103038.31;;;14.83;100.00
55311;BME280;41173;52.634;-8.666;2022-07-09T03:15:00;103035.06;;;14.92;100.00
55311;BME280;41173;52.634;-8.666;2022-07-09T03:17:25;103040.00;;;14.80;100.00
55311;BME280;41173;52.634;-8.666;2022-07-09T03:19:52;103034.38;;;14.71;100.00
55311;BME280;41173;52.634;-8.666;2022-07-09T03:22:17;103031.25;;;14.84;100.00
55311;BME280;41173;52.634;-8.666;2022-07-09T03:24:43;103030.47;;;14.87;100.00
55311;BME280;41173;52.634;-8.666;2022-07-09T03:27:08;103030.13;;;14.76;100.00
55311;BME280;41173;52.634;-8.666;2022-07-09T03:29:34;103040.72;;;14.76;100.00
55311;BME280;41173;52.634;-8.666;2022-07-09T03:32:00;103039.72;;;14.43;100.00
55311;BME280;41173;52.634;-8.666;2022-07-09T03:34:26;103040.00;;;14.25;100.00
55311;BME280;41173;52.634;-8.666;2022-07-09T03:36:51;103036.75;;;14.34;100.00
55311;BME280;41173;52.634;-8.666;2022-07-09T03:39:16;103033.59;;;14.46;100.00
55311;BME280;41173;52.634;-8.666;2022-07-09T03:41:42;103041.44;;;14.43;100.00
55311;BME280;41173;52.634;-8.666;2022-07-09T03:44:07;103040.84;;;14.52;100.00
55311;BME280;41173;52.634;-8.666;2022-07-09T03:46:33;103040.56;;;14.70;100.00
55311;BME280;41173;52.634;-8.666;2022-07-09T03:48:59;103040.34;;;14.63;100.00
55311;BME280;41173;52.634;-8.666;2022-07-09T03:51:24;103032.59;;;14.42;100.00
55311;BME280;41173;52.634;-8.666;2022-07-09T03:53:50;103033.06;;;14.29;100.00
55311;BME280;41173;52.634;-8.666;2022-07-09T03:56:15;103042.53;;;14.21;100.00
55311;BME280;41173;52.634;-8.666;2022-07-09T03:58:41;103038.13;;;14.21;100.00
55311;BME280;41173;52.634;-8.666;2022-07-09T04:01:08;103033.16;;;14.32;100.00
55311;BME280;41173;52.634;-8.666;2022-07-09T04:03:33;103026.25;;;14.08;100.00
55311;BME280;41173;52.634;-8.666;2022-07-09T04:05:59;103026.25;;;14.37;100.00
55311;BME280;41173;52.634;-8.666;2022-07-09T04:08:24;103035.03;;;14.07;100.00
55311;BME280;41173;52.634;-8.666;2022-07-09T04:10:50;103032.53;;;14.12;100.00
55311;BME280;41173;52.634;-8.666;2022-07-09T04:13:15;103035.38;;;13.92;100.00
55311;BME280;41173;52.634;-8.666;2022-07-09T04:15:41;103042.19;;;14.11;100.00
55311;BME280;41173;52.634;-8.666;2022-07-09T04:18:06;103035.13;;;14.10;100.00
55311;BME280;41173;52.634;-8.666;2022-07-09T04:20:31;103032.78;;;14.20;100.00
55311;BME280;41173;52.634;-8.666;2022-07-09T04:22:57;103034.66;;;14.24;100.00
55311;BME280;41173;52.634;-8.666;2022-07-09T04:25:22;103038.56;;;14.35;100.00
55311;BME280;41173;52.634;-8.666;2022-07-09T04:27:48;103037.91;;;13.88;100.00
55311;BME280;41173;52.634;-8.666;2022-07-09T04:30:13;103036.56;;;14.01;100.00
55311;BME280;41173;52.634;-8.666;2022-07-09T04:32:38;103032.84;;;13.96;100.00
55311;BME280;41173;52.634;-8.666;2022-07-09T04:35:04;103037.75;;;13.83;100.00
55311;BME280;41173;52.634;-8.666;2022-07-09T04:37:30;103037.22;;;14.21;100.00
55311;BME280;41173;52.634;-8.666;2022-07-09T04:39:55;103037.91;;;13.88;100.00
55311;BME280;41173;52.634;-8.666;2022-07-09T04:42:20;103029.91;;;13.86;100.00
55311;BME280;41173;52.634;-8.666;2022-07-09T04:44:46;103026.22;;;13.81;100.00
55311;BME280;41173;52.634;-8.666;2022-07-09T04:47:11;103028.63;;;14.01;100.00
55311;BME280;41173;52.634;-8.666;2022-07-09T04:49:37;103027.75;;;14.29;100.00
55311;BME280;41173;52.634;-8.666;2022-07-09T04:52:03;103022.38;;;13.99;100.00
55311;BME280;41173;52.634;-8.666;2022-07-09T04:54:28;103032.81;;;14.21;100.00
55311;BME280;41173;52.634;-8.666;2022-07-09T04:56:54;103026.06;;;14.04;100.00
55311;BME280;41173;52.634;-8.666;2022-07-09T04:59:19;103032.50;;;14.39;100.00
55311;BME280;41173;52.634;-8.666;2022-07-09T05:01:45;103035.91;;;14.35;100.00
55311;BME280;41173;52.634;-8.666;2022-07-09T05:04:11;103030.00;;;14.44;100.00
55311;BME280;41173;52.634;-8.666;2022-07-09T05:06:36;103030.59;;;13.81;100.00
55311;BME280;41173;52.634;-8.666;2022-07-09T05:09:02;103023.63;;;14.10;100.00
55311;BME280;41173;52.634;-8.666;2022-07-09T05:11:28;103027.19;;;14.10;100.00
55311;BME280;41173;52.634;-8.666;2022-07-09T05:13:53;103027.91;;;13.53;100.00
55311;BME280;41173;52.634;-8.666;2022-07-09T05:16:18;103034.19;;;13.57;100.00
55311;BME280;41173;52.634;-8.666;2022-07-09T05:18:44;103035.16;;;13.85;100.00
55311;BME280;41173;52.634;-8.666;2022-07-09T05:21:09;103042.66;;;13.98;100.00
55311;BME280;41173;52.634;-8.666;2022-07-09T05:23:35;103029.63;;;14.04;100.00
55311;BME280;41173;52.634;-8.666;2022-07-09T05:26:00;103037.56;;;13.79;100.00
55311;BME280;41173;52.634;-8.666;2022-07-09T05:28:26;103039.66;;;14.15;100.00
55311;BME280;41173;52.634;-8.666;2022-07-09T05:30:51;103044.63;;;14.31;100.00
55311;BME280;41173;52.634;-8.666;2022-07-09T05:33:17;103041.38;;;14.13;100.00
55311;BME280;41173;52.634;-8.666;2022-07-09T05:35:42;103039.34;;;14.31;100.00
55311;BME280;41173;52.634;-8.666;2022-07-09T05:38:08;103037.06;;;14.43;100.00
55311;BME280;41173;52.634;-8.666;2022-07-09T05:40:33;103039.22;;;14.28;100.00
55311;BME280;41173;52.634;-8.666;2022-07-09T05:42:59;103044.78;;;14.08;100.00
55311;BME280;41173;52.634;-8.666;2022-07-09T05:45:24;103043.25;;;13.89;100.00
55311;BME280;41173;52.634;-8.666;2022-07-09T05:47:49;103041.19;;;13.81;100.00
55311;BME280;41173;52.634;-8.666;2022-07-09T05:50:15;103044.97;;;13.63;100.00
55311;BME280;41173;52.634;-8.666;2022-07-09T05:52:40;103042.78;;;13.76;100.00
55311;BME280;41173;52.634;-8.666;2022-07-09T05:55:06;103044.25;;;13.67;100.00
55311;BME280;41173;52.634;-8.666;2022-07-09T05:57:31;103045.72;;;13.59;100.00
55311;BME280;41173;52.634;-8.666;2022-07-09T05:59:57;103050.78;;;14.04;100.00
55311;BME280;41173;52.634;-8.666;2022-07-09T06:02:23;103047.44;;;13.83;100.00
55311;BME280;41173;52.634;-8.666;2022-07-09T06:04:49;103053.72;;;13.86;100.00
55311;BME280;41173;52.634;-8.666;2022-07-09T06:07:14;103048.97;;;14.02;100.00
55311;BME280;41173;52.634;-8.666;2022-07-09T06:09:40;103050.81;;;13.79;100.00
55311;BME280;41173;52.634;-8.666;2022-07-09T06:12:05;103059.78;;;14.09;100.00
55311;BME280;41173;52.634;-8.666;2022-07-09T06:14:31;103055.81;;;14.22;100.00
55311;BME280;41173;52.634;-8.666;2022-07-09T06:16:58;103062.63;;;13.88;100.00
55311;BME280;41173;52.634;-8.666;2022-07-09T06:19:26;103056.25;;;13.83;100.00
55311;BME280;41173;52.634;-8.666;2022-07-09T06:21:51;103049.91;;;14.04;100.00
55311;BME280;41173;52.634;-8.666;2022-07-09T06:24:16;103050.97;;;13.58;100.00
55311;BME280;41173;52.634;-8.666;2022-07-09T06:26:42;103058.69;;;14.03;100.00
55311;BME280;41173;52.634;-8.666;2022-07-09T06:29:07;103055.69;;;13.92;100.00
55311;BME280;41173;52.634;-8.666;2022-07-09T06:31:33;103058.19;;;13.63;100.00
55311;BME280;41173;52.634;-8.666;2022-07-09T06:33:59;103056.31;;;14.10;100.00
55311;BME280;41173;52.634;-8.666;2022-07-09T06:36:25;103046.38;;;13.78;100.00
55311;BME280;41173;52.634;-8.666;2022-07-09T06:38:50;103041.38;;;13.87;100.00
55311;BME280;41173;52.634;-8.666;2022-07-09T06:41:34;103048.69;;;13.94;100.00
55311;BME280;41173;52.634;-8.666;2022-07-09T06:43:59;103054.44;;;14.08;100.00
55311;BME280;41173;52.634;-8.666;2022-07-09T06:46:25;103044.97;;;14.15;100.00
55311;BME280;41173;52.634;-8.666;2022-07-09T06:48:51;103061.19;;;14.25;100.00
55311;BME280;41173;52.634;-8.666;2022-07-09T06:51:17;103065.94;;;14.36;100.00
55311;BME280;41173;52.634;-8.666;2022-07-09T06:53:42;103059.88;;;14.38;100.00
55311;BME280;41173;52.634;-8.666;2022-07-09T06:56:07;103072.50;;;14.47;100.00
55311;BME280;41173;52.634;-8.666;2022-07-09T06:58:33;103071.31;;;14.64;100.00
55311;BME280;41173;52.634;-8.666;2022-07-09T07:00:58;103068.00;;;14.72;100.00
55311;BME280;41173;52.634;-8.666;2022-07-09T07:03:24;103069.88;;;14.74;100.00
55311;BME280;41173;52.634;-8.666;2022-07-09T07:05:49;103068.94;;;15.02;100.00
55311;BME280;41173;52.634;-8.666;2022-07-09T07:08:14;103062.91;;;14.51;100.00
55311;BME280;41173;52.634;-8.666;2022-07-09T07:10:40;103070.50;;;14.40;100.00
55311;BME280;41173;52.634;-8.666;2022-07-09T07:13:05;103071.03;;;14.57;100.00
55311;BME280;41173;52.634;-8.666;2022-07-09T07:15:31;103085.56;;;14.68;100.00
55311;BME280;41173;52.634;-8.666;2022-07-09T07:17:56;103075.72;;;14.93;100.00
55311;BME280;41173;52.634;-8.666;2022-07-09T07:20:21;103085.00;;;14.78;100.00
55311;BME280;41173;52.634;-8.666;2022-07-09T07:22:50;103079.50;;;15.01;100.00
55311;BME280;41173;52.634;-8.666;2022-07-09T07:25:16;103082.66;;;14.89;100.00
55311;BME280;41173;52.634;-8.666;2022-07-09T07:27:41;103084.59;;;14.95;100.00
55311;BME280;41173;52.634;-8.666;2022-07-09T07:30:07;103081.09;;;14.96;100.00
55311;BME280;41173;52.634;-8.666;2022-07-09T07:32:32;103091.75;;;14.97;100.00
55311;BME280;41173;52.634;-8.666;2022-07-09T07:34:58;103087.81;;;15.13;100.00
55311;BME280;41173;52.634;-8.666;2022-07-09T07:37:23;103082.72;;;15.51;100.00
55311;BME280;41173;52.634;-8.666;2022-07-09T07:39:48;103082.81;;;15.54;100.00
55311;BME280;41173;52.634;-8.666;2022-07-09T07:42:14;103087.75;;;16.06;100.00
55311;BME280;41173;52.634;-8.666;2022-07-09T07:44:40;103083.53;;;15.81;100.00
55311;BME280;41173;52.634;-8.666;2022-07-09T07:47:06;103078.09;;;15.76;100.00
55311;BME280;41173;52.634;-8.666;2022-07-09T07:49:31;103086.19;;;15.50;100.00
55311;BME280;41173;52.634;-8.666;2022-07-09T07:51:57;103076.13;;;16.02;100.00
55311;BME280;41173;52.634;-8.666;2022-07-09T07:54:22;103081.44;;;16.37;100.00
55311;BME280;41173;52.634;-8.666;2022-07-09T07:56:48;103070.13;;;16.09;100.00
55311;BME280;41173;52.634;-8.666;2022-07-09T07:59:15;103075.28;;;16.03;100.00
55311;BME280;41173;52.634;-8.666;2022-07-09T08:01:40;103083.13;;;16.33;100.00
55311;BME280;41173;52.634;-8.666;2022-07-09T08:04:06;103075.75;;;16.22;100.00
55311;BME280;41173;52.634;-8.666;2022-07-09T08:06:31;103073.72;;;16.48;100.00
55311;BME280;41173;52.634;-8.666;2022-07-09T08:08:56;103067.38;;;15.73;100.00
55311;BME280;41173;52.634;-8.666;2022-07-09T08:11:22;103071.16;;;15.81;100.00
55311;BME280;41173;52.634;-8.666;2022-07-09T08:13:47;103067.31;;;16.03;100.00
55311;BME280;41173;52.634;-8.666;2022-07-09T08:16:13;103072.44;;;15.95;100.00
55311;BME280;41173;52.634;-8.666;2022-07-09T08:18:38;103070.84;;;16.40;100.00
55311;BME280;41173;52.634;-8.666;2022-07-09T08:21:04;103068.16;;;16.75;100.00
55311;BME280;41173;52.634;-8.666;2022-07-09T08:23:29;103079.84;;;16.44;100.00
55311;BME280;41173;52.634;-8.666;2022-07-09T08:25:54;103086.16;;;16.85;100.00
55311;BME280;41173;52.634;-8.666;2022-07-09T08:28:20;103068.88;;;16.69;100.00
55311;BME280;41173;52.634;-8.666;2022-07-09T08:30:45;103077.22;;;16.47;100.00
55311;BME280;41173;52.634;-8.666;2022-07-09T08:33:11;103070.44;;;15.87;100.00
55311;BME280;41173;52.634;-8.666;2022-07-09T08:35:36;103079.25;;;15.86;100.00
55311;BME280;41173;52.634;-8.666;2022-07-09T08:38:01;103083.25;;;16.40;100.00
55311;BME280;41173;52.634;-8.666;2022-07-09T08:40:27;103068.22;;;17.19;100.00
55311;BME280;41173;52.634;-8.666;2022-07-09T08:42:53;103083.34;;;17.66;100.00
55311;BME280;41173;52.634;-8.666;2022-07-09T08:45:20;103076.97;;;17.56;100.00
55311;BME280;41173;52.634;-8.666;2022-07-09T08:47:46;103077.31;;;17.76;100.00
55311;BME280;41173;52.634;-8.666;2022-07-09T08:50:12;103078.38;;;17.84;100.00
55311;BME280;41173;52.634;-8.666;2022-07-09T08:52:39;103068.72;;;17.42;100.00
55311;BME280;41173;52.634;-8.666;2022-07-09T08:55:06;103070.34;;;17.36;100.00
55311;BME280;41173;52.634;-8.666;2022-07-09T08:57:33;103068.03;;;17.54;100.00
55311;BME280;41173;52.634;-8.666;2022-07-09T09:00:00;103069.28;;;17.75;100.00
55311;BME280;41173;52.634;-8.666;2022-07-09T09:02:25;103067.03;;;17.49;100.00
55311;BME280;41173;52.634;-8.666;2022-07-09T09:04:51;103065.75;;;17.74;100.00
55311;BME280;41173;52.634;-8.666;2022-07-09T09:07:18;103073.75;;;18.25;100.00
55311;BME280;41173;52.634;-8.666;2022-07-09T09:09:45;103074.41;;;18.11;100.00
55311;BME280;41173;52.634;-8.666;2022-07-09T09:12:11;103070.78;;;18.63;100.00
55311;BME280;41173;52.634;-8.666;2022-07-09T09:14:37;103063.41;;;18.45;100.00
55311;BME280;41173;52.634;-8.666;2022-07-09T09:17:07;103074.13;;;18.49;100.00
55311;BME280;41173;52.634;-8.666;2022-07-09T09:19:35;103064.91;;;18.29;100.00
55311;BME280;41173;52.634;-8.666;2022-07-09T09:22:00;103070.50;;;17.91;100.00
55311;BME280;41173;52.634;-8.666;2022-07-09T09:24:26;103071.97;;;17.75;100.00
55311;BME280;41173;52.634;-8.666;2022-07-09T09:26:56;103071.53;;;17.99;100.00
55311;BME280;41173;52.634;-8.666;2022-07-09T09:29:21;103066.53;;;18.17;100.00
55311;BME280;41173;52.634;-8.666;2022-07-09T09:31:46;103059.47;;;17.71;100.00
55311;BME280;41173;52.634;-8.666;2022-07-09T09:34:15;103067.44;;;18.19;100.00
55311;BME280;41173;52.634;-8.666;2022-07-09T09:36:45;103062.88;;;18.12;100.00
55311;BME280;41173;52.634;-8.666;2022-07-09T09:39:11;103061.53;;;18.39;100.00
55311;BME280;41173;52.634;-8.666;2022-07-09T09:41:37;103068.13;;;19.30;100.00
55311;BME280;41173;52.634;-8.666;2022-07-09T09:44:08;103058.91;;;19.05;100.00
55311;BME280;41173;52.634;-8.666;2022-07-09T09:46:37;103062.78;;;19.28;100.00
55311;BME280;41173;52.634;-8.666;2022-07-09T09:49:04;103063.41;;;19.06;100.00
55311;BME280;41173;52.634;-8.666;2022-07-09T09:51:35;103059.78;;;19.01;100.00
55311;BME280;41173;52.634;-8.666;2022-07-09T09:54:02;103062.53;;;19.10;100.00
55311;BME280;41173;52.634;-8.666;2022-07-09T09:56:28;103059.50;;;18.22;100.00
55311;BME280;41173;52.634;-8.666;2022-07-09T09:58:55;103053.03;;;18.07;100.00
55311;BME280;41173;52.634;-8.666;2022-07-09T10:01:21;103049.84;;;18.29;100.00
55311;BME280;41173;52.634;-8.666;2022-07-09T10:03:48;103064.09;;;18.31;100.00
55311;BME280;41173;52.634;-8.666;2022-07-09T10:06:14;103058.97;;;18.45;100.00
55311;BME280;41173;52.634;-8.666;2022-07-09T10:08:40;103049.53;;;18.69;100.00
55311;BME280;41173;52.634;-8.666;2022-07-09T10:11:05;103047.19;;;18.29;100.00
55311;BME280;41173;52.634;-8.666;2022-07-09T10:13:31;103047.47;;;17.94;100.00
55311;BME280;41173;52.634;-8.666;2022-07-09T10:15:56;103045.66;;;18.47;100.00
55311;BME280;41173;52.634;-8.666;2022-07-09T10:18:21;103052.59;;;18.37;100.00
55311;BME280;41173;52.634;-8.666;2022-07-09T10:20:47;103046.81;;;18.64;100.00
55311;BME280;41173;52.634;-8.666;2022-07-09T10:23:25;103045.28;;;18.23;100.00
55311;BME280;41173;52.634;-8.666;2022-07-09T10:25:52;103047.34;;;18.40;100.00
55311;BME280;41173;52.634;-8.666;2022-07-09T10:28:21;103038.88;;;18.69;100.00
55311;BME280;41173;52.634;-8.666;2022-07-09T10:30:48;103034.06;;;18.43;100.00
55311;BME280;41173;52.634;-8.666;2022-07-09T10:33:22;103034.31;;;18.63;100.00
55311;BME280;41173;52.634;-8.666;2022-07-09T10:35:50;103033.94;;;19.00;100.00
55311;BME280;41173;52.634;-8.666;2022-07-09T10:38:19;103030.47;;;19.05;100.00
55311;BME280;41173;52.634;-8.666;2022-07-09T10:40:55;103038.94;;;18.75;100.00
55311;BME280;41173;52.634;-8.666;2022-07-09T10:43:49;103028.22;;;18.72;100.00
55311;BME280;41173;52.634;-8.666;2022-07-09T10:46:15;103034.31;;;19.30;100.00
55311;BME280;41173;52.634;-8.666;2022-07-09T10:48:42;103013.06;;;19.40;100.00
55311;BME280;41173;52.634;-8.666;2022-07-09T10:51:17;103025.91;;;19.78;100.00
55311;BME280;41173;52.634;-8.666;2022-07-09T10:53:42;103024.56;;;20.32;100.00
55311;BME280;41173;52.634;-8.666;2022-07-09T10:56:07;103016.34;;;20.04;100.00
55311;BME280;41173;52.634;-8.666;2022-07-09T10:58:33;103015.31;;;19.87;100.00
55311;BME280;41173;52.634;-8.666;2022-07-09T11:01:01;103022.72;;;19.27;100.00
55311;BME280;41173;52.634;-8.666;2022-07-09T11:03:30;103021.56;;;19.87;100.00
55311;BME280;41173;52.634;-8.666;2022-07-09T11:05:57;103015.28;;;19.84;100.00
55311;BME280;41173;52.634;-8.666;2022-07-09T11:08:23;103010.69;;;19.72;100.00
55311;BME280;41173;52.634;-8.666;2022-07-09T11:10:49;103011.16;;;20.26;100.00
55311;BME280;41173;52.634;-8.666;2022-07-09T11:13:15;103014.00;;;20.57;100.00
55311;BME280;41173;52.634;-8.666;2022-07-09T11:15:40;103000.75;;;20.66;100.00
55311;BME280;41173;52.634;-8.666;2022-07-09T11:18:10;103008.84;;;20.91;100.00
55311;BME280;41173;52.634;-8.666;2022-07-09T11:20:41;103000.75;;;20.72;100.00
55311;BME280;41173;52.634;-8.666;2022-07-09T11:23:09;103007.91;;;20.73;100.00
55311;BME280;41173;52.634;-8.666;2022-07-09T11:25:35;102999.63;;;20.33;100.00
55311;BME280;41173;52.634;-8.666;2022-07-09T11:28:01;103004.34;;;20.80;100.00
55311;BME280;41173;52.634;-8.666;2022-07-09T11:30:27;103001.75;;;21.02;100.00
55311;BME280;41173;52.634;-8.666;2022-07-09T11:32:55;103005.47;;;21.64;100.00
55311;BME280;41173;52.634;-8.666;2022-07-09T11:35:31;103004.59;;;21.79;99.98
55311;BME280;41173;52.634;-8.666;2022-07-09T11:37:58;103002.75;;;21.32;100.00
55311;BME280;41173;52.634;-8.666;2022-07-09T11:40:24;103003.63;;;21.43;100.00
55311;BME280;41173;52.634;-8.666;2022-07-09T11:42:50;102994.72;;;21.42;100.00
55311;BME280;41173;52.634;-8.666;2022-07-09T11:45:24;102988.50;;;21.93;98.21
55311;BME280;41173;52.634;-8.666;2022-07-09T11:47:50;102994.75;;;21.98;97.45
55311;BME280;41173;52.634;-8.666;2022-07-09T11:50:18;102987.56;;;22.42;96.45
55311;BME280;41173;52.634;-8.666;2022-07-09T11:52:50;102985.84;;;21.53;100.00
55311;BME280;41173;52.634;-8.666;2022-07-09T11:55:18;102995.63;;;22.14;97.13
55311;BME280;41173;52.634;-8.666;2022-07-09T11:57:56;102986.63;;;21.16;100.00
55311;BME280;41173;52.634;-8.666;2022-07-09T12:00:29;102976.91;;;21.72;100.00
55311;BME280;41173;52.634;-8.666;2022-07-09T12:02:56;102985.78;;;22.13;97.55
55311;BME280;41173;52.634;-8.666;2022-07-09T12:05:31;102983.13;;;22.31;93.82
55311;BME280;41173;52.634;-8.666;2022-07-09T12:08:02;102975.06;;;22.38;92.30
55311;BME280;41173;52.634;-8.666;2022-07-09T12:10:35;102978.59;;;22.46;92.01
55311;BME280;41173;52.634;-8.666;2022-07-09T12:13:03;102975.91;;;22.46;90.50
55311;BME280;41173;52.634;-8.666;2022-07-09T12:15:29;102975.94;;;22.24;95.17
55311;BME280;41173;52.634;-8.666;2022-07-09T12:18:01;102976.66;;;22.85;89.57
55311;BME280;41173;52.634;-8.666;2022-07-09T12:20:29;102972.66;;;23.57;83.11
55311;BME280;41173;52.634;-8.666;2022-07-09T12:22:55;102971.94;;;23.28;83.66
55311;BME280;41173;52.634;-8.666;2022-07-09T12:25:21;102969.59;;;22.59;89.14